sensor_id;sensor_type;location;lat;lon;timestamp;P1;durP1;ratioP1;P2;durP2;ratioP2
8100;SDS011;4093;53.470;9.832;2024-01-30T00:00:17;12.50;;;10.20;;
8100;SDS011;4093;53.470;9.832;2024-01-30T00:02:45;16.20;;;9.47;;
8100;SDS011;4093;53.470;9.832;2024-01-30T00:05:13;11.23;;;9.10;;
8100;SDS011;4093;53.470;9.832;2024-01-30T00:07:41;10.37;;;8.90;;
8100;SDS011;4093;53.470;9.832;2024-01-30T00:10:09;13.93;;;9.33;;
8100;SDS011;4093;53.470;9.832;2024-01-30T00:12:37;12.57;;;9.23;;
8100;SDS011;4093;53.470;9.832;2024-01-30T00:15:06;12.30;;;8.57;;
8100;SDS011;4093;53.470;9.832;2024-01-30T00:17:35;13.77;;;8.47;;
8100;SDS011;4093;53.470;9.832;2024-01-30T00:20:04;11.23;;;8.47;;
8100;SDS011;4093;53.470;9.832;2024-01-30T00:22:33;13.83;;;8.83;;
8100;SDS011;4093;53.470;9.832;2024-01-30T00:25:01;10.67;;;8.30;;
8100;SDS011;4093;53.470;9.832;2024-01-30T00:27:29;11.10;;;8.33;;
8100;SDS011;4093;53.470;9.832;2024-01-30T00:29:56;12.10;;;8.20;;
8100;SDS011;4093;53.470;9.832;2024-01-30T00:32:26;12.53;;;8.00;;
8100;SDS011;4093;53.470;9.832;2024-01-30T00:34:53;10.17;;;7.63;;
8100;SDS011;4093;53.470;9.832;2024-01-30T00:37:21;11.60;;;8.40;;
8100;SDS011;4093;53.470;9.832;2024-01-30T00:39:49;10.87;;;8.27;;
8100;SDS011;4093;53.470;9.832;2024-01-30T00:42:17;11.83;;;8.33;;
8100;SDS011;4093;53.470;9.832;2024-01-30T00:44:45;10.07;;;7.40;;
8100;SDS011;4093;53.470;9.832;2024-01-30T00:47:13;11.57;;;8.10;;
8100;SDS011;4093;53.470;9.832;2024-01-30T00:49:42;9.10;;;7.53;;
8100;SDS011;4093;53.470;9.832;2024-01-30T00:52:10;8.93;;;7.73;;
8100;SDS011;4093;53.470;9.832;2024-01-30T00:54:38;10.13;;;7.63;;
8100;SDS011;4093;53.470;9.832;2024-01-30T00:57:05;8.97;;;7.13;;
8100;SDS011;4093;53.470;9.832;2024-01-30T00:59:33;10.47;;;8.03;;
8100;SDS011;4093;53.470;9.832;2024-01-30T01:02:01;10.20;;;7.30;;
8100;SDS011;4093;53.470;9.832;2024-01-30T01:04:28;11.03;;;8.00;;
8100;SDS011;4093;53.470;9.832;2024-01-30T01:06:57;11.20;;;7.60;;
8100;SDS011;4093;53.470;9.832;2024-01-30T01:09:25;10.23;;;8.23;;
8100;SDS011;4093;53.470;9.832;2024-01-30T01:11:53;9.03;;;7.80;;
8100;SDS011;4093;53.470;9.832;2024-01-30T01:14:21;10.20;;;7.47;;
8100;SDS011;4093;53.470;9.832;2024-01-30T01:16:48;13.07;;;8.40;;
8100;SDS011;4093;53.470;9.832;2024-01-30T01:19:16;8.40;;;7.17;;
8100;SDS011;4093;53.470;9.832;2024-01-30T01:21:44;10.43;;;8.43;;
8100;SDS011;4093;53.470;9.832;2024-01-30T01:24:13;10.10;;;7.90;;
8100;SDS011;4093;53.470;9.832;2024-01-30T01:26:41;10.03;;;7.53;;
8100;SDS011;4093;53.470;9.832;2024-01-30T01:29:08;10.00;;;7.73;;
8100;SDS011;4093;53.470;9.832;2024-01-30T01:31:38;11.43;;;8.07;;
8100;SDS011;4093;53.470;9.832;2024-01-30T01:34:10;9.70;;;8.07;;
8100;SDS011;4093;53.470;9.832;2024-01-30T01:36:38;12.17;;;8.03;;
8100;SDS011;4093;53.470;9.832;2024-01-30T01:39:06;10.43;;;7.97;;
8100;SDS011;4093;53.470;9.832;2024-01-30T01:41:36;11.17;;;8.13;;
8100;SDS011;4093;53.470;9.832;2024-01-30T01:44:04;11.97;;;8.07;;
8100;SDS011;4093;53.470;9.832;2024-01-30T01:46:32;10.17;;;7.83;;
8100;SDS011;4093;53.470;9.832;2024-01-30T01:49:01;8.63;;;7.67;;
8100;SDS011;4093;53.470;9.832;2024-01-30T01:51:33;10.30;;;7.73;;
8100;SDS011;4093;53.470;9.832;2024-01-30T01:54:03;13.47;;;8.83;;
8100;SDS011;4093;53.470;9.832;2024-01-30T01:56:32;11.33;;;7.40;;
8100;SDS011;4093;53.470;9.832;2024-01-30T01:59:04;8.80;;;7.90;;
8100;SDS011;4093;53.470;9.832;2024-01-30T02:01:33;10.03;;;8.30;;
8100;SDS011;4093;53.470;9.832;2024-01-30T02:04:01;13.23;;;8.53;;
8100;SDS011;4093;53.470;9.832;2024-01-30T02:06:29;11.17;;;8.40;;
8100;SDS011;4093;53.470;9.832;2024-01-30T02:08:58;10.30;;;7.97;;
8100;SDS011;4093;53.470;9.832;2024-01-30T02:11:25;12.23;;;8.40;;
8100;SDS011;4093;53.470;9.832;2024-01-30T02:13:54;9.37;;;7.70;;
8100;SDS011;4093;53.470;9.832;2024-01-30T02:16:23;9.60;;;7.30;;
8100;SDS011;4093;53.470;9.832;2024-01-30T02:18:51;11.60;;;8.53;;
8100;SDS011;4093;53.470;9.832;2024-01-30T02:21:20;8.77;;;7.87;;
8100;SDS011;4093;53.470;9.832;2024-01-30T02:23:48;12.17;;;8.23;;
8100;SDS011;4093;53.470;9.832;2024-01-30T02:26:17;11.00;;;7.77;;
8100;SDS011;4093;53.470;9.832;2024-01-30T02:28:45;8.73;;;7.57;;
8100;SDS011;4093;53.470;9.832;2024-01-30T02:31:13;9.33;;;7.83;;
8100;SDS011;4093;53.470;9.832;2024-01-30T02:33:40;10.40;;;8.03;;
8100;SDS011;4093;53.470;9.832;2024-01-30T02:36:08;9.97;;;8.03;;
8100;SDS011;4093;53.470;9.832;2024-01-30T02:38:37;13.87;;;8.93;;
8100;SDS011;4093;53.470;9.832;2024-01-30T02:41:05;10.50;;;8.67;;
8100;SDS011;4093;53.470;9.832;2024-01-30T02:43:32;9.97;;;8.43;;
8100;SDS011;4093;53.470;9.832;2024-01-30T02:46:00;10.43;;;8.60;;
8100;SDS011;4093;53.470;9.832;2024-01-30T02:48:28;11.00;;;8.87;;
8100;SDS011;4093;53.470;9.832;2024-01-30T02:50:56;11.00;;;8.27;;
8100;SDS011;4093;53.470;9.832;2024-01-30T02:53:24;11.47;;;8.77;;
8100;SDS011;4093;53.470;9.832;2024-01-30T02:55:53;11.77;;;9.07;;
8100;SDS011;4093;53.470;9.832;2024-01-30T02:58:20;10.73;;;8.23;;
8100;SDS011;4093;53.470;9.832;2024-01-30T03:00:48;14.10;;;9.43;;
8100;SDS011;4093;53.470;9.832;2024-01-30T03:03:16;10.40;;;8.47;;
8100;SDS011;4093;53.470;9.832;2024-01-30T03:05:44;11.07;;;8.77;;
8100;SDS011;4093;53.470;9.832;2024-01-30T03:08:11;11.47;;;8.73;;
8100;SDS011;4093;53.470;9.832;2024-01-30T03:10:39;10.57;;;9.27;;
8100;SDS011;4093;53.470;9.832;2024-01-30T03:13:08;16.87;;;9.43;;
8100;SDS011;4093;53.470;9.832;2024-01-30T03:15:36;13.07;;;8.80;;
8100;SDS011;4093;53.470;9.832;2024-01-30T03:18:04;13.70;;;9.13;;
8100;SDS011;4093;53.470;9.832;2024-01-30T03:20:32;13.13;;;9.73;;
8100;SDS011;4093;53.470;9.832;2024-01-30T03:23:00;12.03;;;9.87;;
8100;SDS011;4093;53.470;9.832;2024-01-30T03:25:29;11.30;;;9.07;;
8100;SDS011;4093;53.470;9.832;2024-01-30T03:27:56;11.70;;;9.83;;
8100;SDS011;4093;53.470;9.832;2024-01-30T03:30:26;11.07;;;9.57;;
8100;SDS011;4093;53.470;9.832;2024-01-30T03:32:53;15.43;;;10.00;;
8100;SDS011;4093;53.470;9.832;2024-01-30T03:35:21;15.13;;;9.93;;
8100;SDS011;4093;53.470;9.832;2024-01-30T03:37:49;13.40;;;9.90;;
8100;SDS011;4093;53.470;9.832;2024-01-30T03:40:16;14.07;;;10.00;;
8100;SDS011;4093;53.470;9.832;2024-01-30T03:42:44;11.37;;;9.70;;
8100;SDS011;4093;53.470;9.832;2024-01-30T03:45:12;13.20;;;10.40;;
8100;SDS011;4093;53.470;9.832;2024-01-30T03:47:42;13.70;;;10.20;;
8100;SDS011;4093;53.470;9.832;2024-01-30T03:50:10;12.30;;;9.80;;
8100;SDS011;4093;53.470;9.832;2024-01-30T03:52:38;14.17;;;10.73;;
8100;SDS011;4093;53.470;9.832;2024-01-30T03:55:06;15.33;;;10.60;;
8100;SDS011;4093;53.470;9.832;2024-01-30T03:57:35;13.83;;;10.67;;
8100;SDS011;4093;53.470;9.832;2024-01-30T04:00:02;15.70;;;10.27;;
8100;SDS011;4093;53.470;9.832;2024-01-30T04:02:31;14.57;;;10.67;;
8100;SDS011;4093;53.470;9.832;2024-01-30T04:05:01;11.43;;;9.57;;
8100;SDS011;4093;53.470;9.832;2024-01-30T04:07:28;15.33;;;10.80;;
8100;SDS011;4093;53.470;9.832;2024-01-30T04:09:56;13.70;;;10.20;;
8100;SDS011;4093;53.470;9.832;2024-01-30T04:12:24;13.93;;;10.87;;
8100;SDS011;4093;53.470;9.832;2024-01-30T04:14:52;13.20;;;10.90;;
8100;SDS011;4093;53.470;9.832;2024-01-30T04:17:19;14.57;;;10.80;;
8100;SDS011;4093;53.470;9.832;2024-01-30T04:19:47;16.03;;;10.27;;
8100;SDS011;4093;53.470;9.832;2024-01-30T04:22:16;13.20;;;11.30;;
8100;SDS011;4093;53.470;9.832;2024-01-30T04:24:44;15.30;;;11.17;;
8100;SDS011;4093;53.470;9.832;2024-01-30T04:27:12;16.20;;;10.87;;
8100;SDS011;4093;53.470;9.832;2024-01-30T04:29:40;16.67;;;12.17;;
8100;SDS011;4093;53.470;9.832;2024-01-30T04:32:07;13.67;;;11.07;;
8100;SDS011;4093;53.470;9.832;2024-01-30T04:34:36;15.13;;;11.43;;
8100;SDS011;4093;53.470;9.832;2024-01-30T04:37:03;13.87;;;11.27;;
8100;SDS011;4093;53.470;9.832;2024-01-30T04:39:33;17.40;;;10.90;;
8100;SDS011;4093;53.470;9.832;2024-01-30T04:42:01;15.97;;;10.70;;
8100;SDS011;4093;53.470;9.832;2024-01-30T04:44:32;14.87;;;10.90;;
8100;SDS011;4093;53.470;9.832;2024-01-30T04:47:00;14.23;;;11.13;;
8100;SDS011;4093;53.470;9.832;2024-01-30T04:49:28;13.17;;;10.77;;
8100;SDS011;4093;53.470;9.832;2024-01-30T04:51:56;13.43;;;10.30;;
8100;SDS011;4093;53.470;9.832;2024-01-30T04:54:24;14.93;;;11.03;;
8100;SDS011;4093;53.470;9.832;2024-01-30T04:56:53;12.97;;;10.63;;
8100;SDS011;4093;53.470;9.832;2024-01-30T04:59:21;16.60;;;10.90;;
8100;SDS011;4093;53.470;9.832;2024-01-30T05:01:48;12.80;;;10.70;;
8100;SDS011;4093;53.470;9.832;2024-01-30T05:04:16;15.57;;;11.33;;
8100;SDS011;4093;53.470;9.832;2024-01-30T05:06:44;14.80;;;10.97;;
8100;SDS011;4093;53.470;9.832;2024-01-30T05:09:12;19.23;;;11.17;;
8100;SDS011;4093;53.470;9.832;2024-01-30T05:11:39;17.50;;;10.47;;
8100;SDS011;4093;53.470;9.832;2024-01-30T05:14:09;12.53;;;11.03;;
8100;SDS011;4093;53.470;9.832;2024-01-30T05:16:37;17.30;;;11.93;;
8100;SDS011;4093;53.470;9.832;2024-01-30T05:19:05;15.60;;;11.20;;
8100;SDS011;4093;53.470;9.832;2024-01-30T05:21:32;14.77;;;10.67;;
8100;SDS011;4093;53.470;9.832;2024-01-30T05:24:00;16.03;;;10.37;;
8100;SDS011;4093;53.470;9.832;2024-01-30T05:26:28;16.63;;;12.13;;
8100;SDS011;4093;53.470;9.832;2024-01-30T05:28:56;12.47;;;10.67;;
8100;SDS011;4093;53.470;9.832;2024-01-30T05:31:25;15.07;;;11.23;;
8100;SDS011;4093;53.470;9.832;2024-01-30T05:33:54;18.07;;;11.07;;
8100;SDS011;4093;53.470;9.832;2024-01-30T05:36:22;11.60;;;10.00;;
8100;SDS011;4093;53.470;9.832;2024-01-30T05:38:49;14.13;;;10.77;;
8100;SDS011;4093;53.470;9.832;2024-01-30T05:41:17;17.33;;;11.33;;
8100;SDS011;4093;53.470;9.832;2024-01-30T05:43:45;15.13;;;10.67;;
8100;SDS011;4093;53.470;9.832;2024-01-30T05:46:12;14.43;;;11.13;;
8100;SDS011;4093;53.470;9.832;2024-01-30T05:48:41;16.60;;;10.53;;
8100;SDS011;4093;53.470;9.832;2024-01-30T05:51:09;15.43;;;11.43;;
8100;SDS011;4093;53.470;9.832;2024-01-30T05:53:37;15.20;;;11.10;;
8100;SDS011;4093;53.470;9.832;2024-01-30T05:56:05;14.07;;;10.93;;
8100;SDS011;4093;53.470;9.832;2024-01-30T05:58:33;15.83;;;11.40;;
8100;SDS011;4093;53.470;9.832;2024-01-30T06:01:04;17.60;;;11.50;;
8100;SDS011;4093;53.470;9.832;2024-01-30T06:03:34;14.47;;;10.07;;
8100;SDS011;4093;53.470;9.832;2024-01-30T06:06:04;15.53;;;11.63;;
8100;SDS011;4093;53.470;9.832;2024-01-30T06:08:32;14.03;;;11.33;;
8100;SDS011;4093;53.470;9.832;2024-01-30T06:10:59;15.43;;;10.70;;
8100;SDS011;4093;53.470;9.832;2024-01-30T06:13:27;16.87;;;11.63;;
8100;SDS011;4093;53.470;9.832;2024-01-30T06:15:58;13.77;;;10.53;;
8100;SDS011;4093;53.470;9.832;2024-01-30T06:18:25;16.87;;;10.97;;
8100;SDS011;4093;53.470;9.832;2024-01-30T06:20:55;16.30;;;11.40;;
8100;SDS011;4093;53.470;9.832;2024-01-30T06:23:24;14.00;;;11.17;;
8100;SDS011;4093;53.470;9.832;2024-01-30T06:25:52;15.43;;;11.83;;
8100;SDS011;4093;53.470;9.832;2024-01-30T06:28:20;15.33;;;10.47;;
8100;SDS011;4093;53.470;9.832;2024-01-30T06:30:48;16.67;;;11.97;;
8100;SDS011;4093;53.470;9.832;2024-01-30T06:33:16;16.87;;;11.83;;
8100;SDS011;4093;53.470;9.832;2024-01-30T06:35:44;13.80;;;10.33;;
8100;SDS011;4093;53.470;9.832;2024-01-30T06:38:12;14.03;;;11.20;;
8100;SDS011;4093;53.470;9.832;2024-01-30T06:40:43;15.40;;;11.30;;
8100;SDS011;4093;53.470;9.832;2024-01-30T06:43:10;13.27;;;10.63;;
8100;SDS011;4093;53.470;9.832;2024-01-30T06:45:38;12.03;;;10.30;;
8100;SDS011;4093;53.470;9.832;2024-01-30T06:48:07;17.83;;;11.63;;
8100;SDS011;4093;53.470;9.832;2024-01-30T06:50:34;13.13;;;10.60;;
8100;SDS011;4093;53.470;9.832;2024-01-30T06:53:02;14.47;;;11.57;;
8100;SDS011;4093;53.470;9.832;2024-01-30T06:55:30;15.23;;;10.40;;
8100;SDS011;4093;53.470;9.832;2024-01-30T06:57:59;13.70;;;11.23;;
8100;SDS011;4093;53.470;9.832;2024-01-30T07:00:27;16.83;;;11.33;;
8100;SDS011;4093;53.470;9.832;2024-01-30T07:02:55;15.33;;;10.73;;
8100;SDS011;4093;53.470;9.832;2024-01-30T07:05:22;14.13;;;10.77;;
8100;SDS011;4093;53.470;9.832;2024-01-30T07:07:50;16.13;;;11.40;;
8100;SDS011;4093;53.470;9.832;2024-01-30T07:10:18;13.93;;;11.50;;
8100;SDS011;4093;53.470;9.832;2024-01-30T07:12:46;15.43;;;11.70;;
8100;SDS011;4093;53.470;9.832;2024-01-30T07:15:15;13.83;;;12.13;;
8100;SDS011;4093;53.470;9.832;2024-01-30T07:17:46;17.40;;;12.53;;
8100;SDS011;4093;53.470;9.832;2024-01-30T07:20:14;15.23;;;11.40;;
8100;SDS011;4093;53.470;9.832;2024-01-30T07:22:43;13.83;;;11.13;;
8100;SDS011;4093;53.470;9.832;2024-01-30T07:25:11;16.03;;;12.17;;
8100;SDS011;4093;53.470;9.832;2024-01-30T07:27:39;18.93;;;11.43;;
8100;SDS011;4093;53.470;9.832;2024-01-30T07:30:07;13.37;;;11.20;;
8100;SDS011;4093;53.470;9.832;2024-01-30T07:32:36;13.27;;;11.17;;
8100;SDS011;4093;53.470;9.832;2024-01-30T07:35:04;14.87;;;10.87;;
8100;SDS011;4093;53.470;9.832;2024-01-30T07:37:34;17.47;;;11.63;;
8100;SDS011;4093;53.470;9.832;2024-01-30T07:40:03;16.30;;;11.20;;
8100;SDS011;4093;53.470;9.832;2024-01-30T07:42:31;15.40;;;12.40;;
8100;SDS011;4093;53.470;9.832;2024-01-30T07:44:59;15.33;;;12.10;;
8100;SDS011;4093;53.470;9.832;2024-01-30T07:47:27;15.17;;;12.07;;
8100;SDS011;4093;53.470;9.832;2024-01-30T07:49:56;18.97;;;11.83;;
8100;SDS011;4093;53.470;9.832;2024-01-30T07:52:24;15.90;;;11.73;;
8100;SDS011;4093;53.470;9.832;2024-01-30T07:54:52;15.23;;;12.00;;
8100;SDS011;4093;53.470;9.832;2024-01-30T07:57:19;17.30;;;11.07;;
8100;SDS011;4093;53.470;9.832;2024-01-30T07:59:47;17.13;;;12.07;;
8100;SDS011;4093;53.470;9.832;2024-01-30T08:02:15;16.13;;;11.70;;
8100;SDS011;4093;53.470;9.832;2024-01-30T08:04:43;16.40;;;11.27;;
8100;SDS011;4093;53.470;9.832;2024-01-30T08:07:16;14.27;;;11.10;;
8100;SDS011;4093;53.470;9.832;2024-01-30T08:09:44;17.63;;;11.17;;
8100;SDS011;4093;53.470;9.832;2024-01-30T08:12:12;15.07;;;11.53;;
8100;SDS011;4093;53.470;9.832;2024-01-30T08:14:41;13.43;;;10.23;;
8100;SDS011;4093;53.470;9.832;2024-01-30T08:17:08;19.90;;;10.90;;
8100;SDS011;4093;53.470;9.832;2024-01-30T08:19:36;15.00;;;11.80;;
8100;SDS011;4093;53.470;9.832;2024-01-30T08:22:04;15.53;;;11.90;;
8100;SDS011;4093;53.470;9.832;2024-01-30T08:24:33;16.33;;;10.87;;
8100;SDS011;4093;53.470;9.832;2024-01-30T08:27:01;14.90;;;11.73;;
8100;SDS011;4093;53.470;9.832;2024-01-30T08:29:31;14.30;;;10.93;;
8100;SDS011;4093;53.470;9.832;2024-01-30T08:31:58;14.20;;;10.90;;
8100;SDS011;4093;53.470;9.832;2024-01-30T08:34:26;15.07;;;11.10;;
8100;SDS011;4093;53.470;9.832;2024-01-30T08:36:54;12.07;;;9.23;;
8100;SDS011;4093;53.470;9.832;2024-01-30T08:39:22;12.47;;;10.17;;
8100;SDS011;4093;53.470;9.832;2024-01-30T08:41:51;14.67;;;11.90;;
8100;SDS011;4093;53.470;9.832;2024-01-30T08:44:19;14.57;;;10.60;;
8100;SDS011;4093;53.470;9.832;2024-01-30T08:46:47;11.67;;;10.43;;
8100;SDS011;4093;53.470;9.832;2024-01-30T08:49:16;13.37;;;10.67;;
8100;SDS011;4093;53.470;9.832;2024-01-30T08:51:44;13.43;;;10.23;;
8100;SDS011;4093;53.470;9.832;2024-01-30T08:54:12;14.97;;;9.27;;
8100;SDS011;4093;53.470;9.832;2024-01-30T08:56:39;12.23;;;9.70;;
8100;SDS011;4093;53.470;9.832;2024-01-30T08:59:08;12.93;;;10.57;;
8100;SDS011;4093;53.470;9.832;2024-01-30T09:01:39;11.50;;;9.47;;
8100;SDS011;4093;53.470;9.832;2024-01-30T09:04:20;12.50;;;9.63;;
8100;SDS011;4093;53.470;9.832;2024-01-30T09:06:51;12.37;;;9.60;;
8100;SDS011;4093;53.470;9.832;2024-01-30T09:09:19;13.07;;;9.03;;
8100;SDS011;4093;53.470;9.832;2024-01-30T09:11:47;12.00;;;9.50;;
8100;SDS011;4093;53.470;9.832;2024-01-30T09:14:16;14.37;;;9.63;;
8100;SDS011;4093;53.470;9.832;2024-01-30T09:16:44;13.03;;;9.33;;
8100;SDS011;4093;53.470;9.832;2024-01-30T09:19:11;14.63;;;10.07;;
8100;SDS011;4093;53.470;9.832;2024-01-30T09:21:39;13.50;;;10.00;;
8100;SDS011;4093;53.470;9.832;2024-01-30T09:24:07;12.67;;;9.80;;
8100;SDS011;4093;53.470;9.832;2024-01-30T09:26:35;14.20;;;10.13;;
8100;SDS011;4093;53.470;9.832;2024-01-30T09:29:03;11.77;;;9.73;;
8100;SDS011;4093;53.470;9.832;2024-01-30T09:31:32;13.90;;;9.60;;
8100;SDS011;4093;53.470;9.832;2024-01-30T09:33:59;12.83;;;10.67;;
8100;SDS011;4093;53.470;9.832;2024-01-30T09:36:27;14.23;;;10.27;;
8100;SDS011;4093;53.470;9.832;2024-01-30T09:38:55;12.67;;;10.53;;
8100;SDS011;4093;53.470;9.832;2024-01-30T09:41:22;14.20;;;11.10;;
8100;SDS011;4093;53.470;9.832;2024-01-30T09:43:51;17.70;;;11.40;;
8100;SDS011;4093;53.470;9.832;2024-01-30T09:46:22;13.20;;;10.97;;
8100;SDS011;4093;53.470;9.832;2024-01-30T09:48:56;12.80;;;10.37;;
8100;SDS011;4093;53.470;9.832;2024-01-30T09:51:25;16.73;;;11.70;;
8100;SDS011;4093;53.470;9.832;2024-01-30T09:53:55;14.10;;;11.10;;
8100;SDS011;4093;53.470;9.832;2024-01-30T09:56:24;13.37;;;11.20;;
8100;SDS011;4093;53.470;9.832;2024-01-30T09:58:51;14.07;;;11.47;;
8100;SDS011;4093;53.470;9.832;2024-01-30T10:01:19;14.80;;;10.60;;
8100;SDS011;4093;53.470;9.832;2024-01-30T10:03:50;13.37;;;10.47;;
8100;SDS011;4093;53.470;9.832;2024-01-30T10:06:20;13.50;;;9.97;;
8100;SDS011;4093;53.470;9.832;2024-01-30T10:08:50;13.67;;;10.37;;
8100;SDS011;4093;53.470;9.832;2024-01-30T10:11:18;15.03;;;10.33;;
8100;SDS011;4093;53.470;9.832;2024-01-30T10:13:45;12.23;;;9.90;;
8100;SDS011;4093;53.470;9.832;2024-01-30T10:16:13;13.90;;;9.57;;
8100;SDS011;4093;53.470;9.832;2024-01-30T10:18:41;13.83;;;11.43;;
8100;SDS011;4093;53.470;9.832;2024-01-30T10:21:10;13.73;;;10.17;;
8100;SDS011;4093;53.470;9.832;2024-01-30T10:23:39;12.40;;;10.43;;
8100;SDS011;4093;53.470;9.832;2024-01-30T10:26:07;13.97;;;10.80;;
8100;SDS011;4093;53.470;9.832;2024-01-30T10:28:35;12.67;;;10.03;;
8100;SDS011;4093;53.470;9.832;2024-01-30T10:31:03;13.43;;;10.50;;
8100;SDS011;4093;53.470;9.832;2024-01-30T10:33:32;11.30;;;9.43;;
8100;SDS011;4093;53.470;9.832;2024-01-30T10:36:00;13.73;;;10.77;;
8100;SDS011;4093;53.470;9.832;2024-01-30T10:38:29;16.13;;;10.00;;
8100;SDS011;4093;53.470;9.832;2024-01-30T10:41:00;14.10;;;10.57;;
8100;SDS011;4093;53.470;9.832;2024-01-30T10:43:30;14.33;;;10.50;;
8100;SDS011;4093;53.470;9.832;2024-01-30T10:46:02;14.83;;;10.50;;
8100;SDS011;4093;53.470;9.832;2024-01-30T10:48:40;11.80;;;9.40;;
8100;SDS011;4093;53.470;9.832;2024-01-30T10:51:11;11.67;;;10.37;;
8100;SDS011;4093;53.470;9.832;2024-01-30T10:53:40;12.80;;;9.70;;
8100;SDS011;4093;53.470;9.832;2024-01-30T10:56:10;11.10;;;9.57;;
8100;SDS011;4093;53.470;9.832;2024-01-30T10:58:39;17.10;;;10.57;;
8100;SDS011;4093;53.470;9.832;2024-01-30T11:01:07;16.87;;;9.60;;
8100;SDS011;4093;53.470;9.832;2024-01-30T11:03:35;13.07;;;10.03;;
8100;SDS011;4093;53.470;9.832;2024-01-30T11:06:04;15.33;;;9.07;;
8100;SDS011;4093;53.470;9.832;2024-01-30T11:08:32;12.17;;;9.80;;
8100;SDS011;4093;53.470;9.832;2024-01-30T11:11:00;12.63;;;10.13;;
8100;SDS011;4093;53.470;9.832;2024-01-30T11:13:30;15.00;;;9.50;;
8100;SDS011;4093;53.470;9.832;2024-01-30T11:16:02;11.30;;;9.50;;
8100;SDS011;4093;53.470;9.832;2024-01-30T11:18:30;11.23;;;9.50;;
8100;SDS011;4093;53.470;9.832;2024-01-30T11:20:59;15.37;;;9.97;;
8100;SDS011;4093;53.470;9.832;2024-01-30T11:23:28;11.70;;;9.07;;
8100;SDS011;4093;53.470;9.832;2024-01-30T11:25:56;12.47;;;9.23;;
8100;SDS011;4093;53.470;9.832;2024-01-30T11:28:24;11.83;;;9.30;;
8100;SDS011;4093;53.470;9.832;2024-01-30T11:31:04;13.80;;;9.67;;
8100;SDS011;4093;53.470;9.832;2024-01-30T11:33:34;15.20;;;9.73;;
8100;SDS011;4093;53.470;9.832;2024-01-30T11:36:03;12.67;;;10.20;;
8100;SDS011;4093;53.470;9.832;2024-01-30T11:38:33;15.07;;;10.57;;
8100;SDS011;4093;53.470;9.832;2024-01-30T11:41:01;12.80;;;9.27;;
8100;SDS011;4093;53.470;9.832;2024-01-30T11:43:30;13.03;;;10.03;;
8100;SDS011;4093;53.470;9.832;2024-01-30T11:46:01;11.20;;;8.87;;
8100;SDS011;4093;53.470;9.832;2024-01-30T11:48:29;12.57;;;9.57;;
8100;SDS011;4093;53.470;9.832;2024-01-30T11:50:58;14.93;;;10.63;;
8100;SDS011;4093;53.470;9.832;2024-01-30T11:53:25;15.23;;;9.90;;
8100;SDS011;4093;53.470;9.832;2024-01-30T11:55:54;13.87;;;10.67;;
8100;SDS011;4093;53.470;9.832;2024-01-30T11:58:24;12.00;;;9.57;;
8100;SDS011;4093;53.470;9.832;2024-01-30T12:00:52;14.47;;;10.20;;
8100;SDS011;4093;53.470;9.832;2024-01-30T12:03:23;16.50;;;9.80;;
8100;SDS011;4093;53.470;9.832;2024-01-30T12:05:55;12.53;;;9.47;;
8100;SDS011;4093;53.470;9.832;2024-01-30T12:08:23;12.83;;;10.30;;
8100;SDS011;4093;53.470;9.832;2024-01-30T12:10:57;15.87;;;10.63;;
8100;SDS011;4093;53.470;9.832;2024-01-30T12:13:28;15.87;;;10.30;;
8100;SDS011;4093;53.470;9.832;2024-01-30T12:15:59;14.13;;;9.93;;
8100;SDS011;4093;53.470;9.832;2024-01-30T12:18:28;13.67;;;10.43;;
8100;SDS011;4093;53.470;9.832;2024-01-30T12:20:57;11.77;;;9.90;;
8100;SDS011;4093;53.470;9.832;2024-01-30T12:23:26;11.03;;;9.60;;
8100;SDS011;4093;53.470;9.832;2024-01-30T12:25:54;15.00;;;10.77;;
8100;SDS011;4093;53.470;9.832;2024-01-30T12:28:22;13.77;;;11.07;;
8100;SDS011;4093;53.470;9.832;2024-01-30T12:30:50;13.53;;;10.10;;
8100;SDS011;4093;53.470;9.832;2024-01-30T12:33:21;15.13;;;10.57;;
8100;SDS011;4093;53.470;9.832;2024-01-30T12:35:54;14.73;;;10.37;;
8100;SDS011;4093;53.470;9.832;2024-01-30T12:38:29;15.07;;;10.60;;
8100;SDS011;4093;53.470;9.832;2024-01-30T12:40:57;11.40;;;9.47;;
8100;SDS011;4093;53.470;9.832;2024-01-30T12:43:24;12.83;;;9.93;;
8100;SDS011;4093;53.470;9.832;2024-01-30T12:46:04;13.00;;;9.97;;
8100;SDS011;4093;53.470;9.832;2024-01-30T12:48:32;13.90;;;9.57;;
8100;SDS011;4093;53.470;9.832;2024-01-30T12:51:02;13.63;;;9.47;;
8100;SDS011;4093;53.470;9.832;2024-01-30T12:53:30;14.20;;;10.70;;
8100;SDS011;4093;53.470;9.832;2024-01-30T12:55:58;12.90;;;9.87;;
8100;SDS011;4093;53.470;9.832;2024-01-30T12:58:26;14.37;;;10.30;;
8100;SDS011;4093;53.470;9.832;2024-01-30T13:00:53;13.13;;;9.57;;
8100;SDS011;4093;53.470;9.832;2024-01-30T13:03:22;11.17;;;9.10;;
8100;SDS011;4093;53.470;9.832;2024-01-30T13:05:50;16.43;;;10.90;;
8100;SDS011;4093;53.470;9.832;2024-01-30T13:08:19;14.53;;;9.60;;
8100;SDS011;4093;53.470;9.832;2024-01-30T13:10:47;12.50;;;9.67;;
8100;SDS011;4093;53.470;9.832;2024-01-30T13:13:15;13.80;;;9.80;;
8100;SDS011;4093;53.470;9.832;2024-01-30T13:15:46;12.67;;;9.40;;
8100;SDS011;4093;53.470;9.832;2024-01-30T13:18:14;13.13;;;10.43;;
8100;SDS011;4093;53.470;9.832;2024-01-30T13:20:42;12.10;;;9.53;;
8100;SDS011;4093;53.470;9.832;2024-01-30T13:23:10;12.23;;;9.60;;
8100;SDS011;4093;53.470;9.832;2024-01-30T13:25:39;13.50;;;10.30;;
8100;SDS011;4093;53.470;9.832;2024-01-30T13:28:07;14.17;;;9.60;;
8100;SDS011;4093;53.470;9.832;2024-01-30T13:30:35;14.67;;;10.03;;
8100;SDS011;4093;53.470;9.832;2024-01-30T13:33:03;12.83;;;9.37;;
8100;SDS011;4093;53.470;9.832;2024-01-30T13:35:31;13.23;;;9.67;;
8100;SDS011;4093;53.470;9.832;2024-01-30T13:37:59;16.93;;;10.17;;
8100;SDS011;4093;53.470;9.832;2024-01-30T13:40:26;16.53;;;10.27;;
8100;SDS011;4093;53.470;9.832;2024-01-30T13:42:56;13.43;;;9.57;;
8100;SDS011;4093;53.470;9.832;2024-01-30T13:45:24;12.67;;;9.50;;
8100;SDS011;4093;53.470;9.832;2024-01-30T13:47:52;11.93;;;9.50;;
8100;SDS011;4093;53.470;9.832;2024-01-30T13:50:20;12.43;;;9.03;;
8100;SDS011;4093;53.470;9.832;2024-01-30T13:52:48;17.43;;;9.93;;
8100;SDS011;4093;53.470;9.832;2024-01-30T13:55:16;11.97;;;9.23;;
8100;SDS011;4093;53.470;9.832;2024-01-30T13:57:44;12.43;;;8.77;;
8100;SDS011;4093;53.470;9.832;2024-01-30T14:00:16;14.27;;;9.90;;
8100;SDS011;4093;53.470;9.832;2024-01-30T14:02:44;14.27;;;9.70;;
8100;SDS011;4093;53.470;9.832;2024-01-30T14:05:12;17.23;;;10.87;;
8100;SDS011;4093;53.470;9.832;2024-01-30T14:07:41;13.50;;;10.70;;
8100;SDS011;4093;53.470;9.832;2024-01-30T14:10:10;13.77;;;9.77;;
8100;SDS011;4093;53.470;9.832;2024-01-30T14:12:41;14.10;;;10.20;;
8100;SDS011;4093;53.470;9.832;2024-01-30T14:15:10;14.47;;;9.93;;
8100;SDS011;4093;53.470;9.832;2024-01-30T14:17:54;15.27;;;9.87;;
8100;SDS011;4093;53.470;9.832;2024-01-30T14:20:22;12.43;;;9.83;;
8100;SDS011;4093;53.470;9.832;2024-01-30T14:22:51;14.17;;;9.83;;
8100;SDS011;4093;53.470;9.832;2024-01-30T14:25:19;16.30;;;9.97;;
8100;SDS011;4093;53.470;9.832;2024-01-30T14:27:47;18.37;;;10.57;;
8100;SDS011;4093;53.470;9.832;2024-01-30T14:30:15;14.93;;;10.47;;
8100;SDS011;4093;53.470;9.832;2024-01-30T14:32:44;13.23;;;10.83;;
8100;SDS011;4093;53.470;9.832;2024-01-30T14:35:14;11.53;;;9.30;;
8100;SDS011;4093;53.470;9.832;2024-01-30T14:37:42;13.50;;;10.17;;
8100;SDS011;4093;53.470;9.832;2024-01-30T14:40:10;12.53;;;9.43;;
8100;SDS011;4093;53.470;9.832;2024-01-30T14:42:39;15.37;;;9.53;;
8100;SDS011;4093;53.470;9.832;2024-01-30T14:45:07;13.20;;;11.03;;
8100;SDS011;4093;53.470;9.832;2024-01-30T14:47:35;13.10;;;10.03;;
8100;SDS011;4093;53.470;9.832;2024-01-30T14:50:04;15.07;;;10.73;;
8100;SDS011;4093;53.470;9.832;2024-01-30T14:52:36;13.47;;;9.30;;
8100;SDS011;4093;53.470;9.832;2024-01-30T14:55:06;14.20;;;10.07;;
8100;SDS011;4093;53.470;9.832;2024-01-30T14:57:35;13.83;;;9.37;;
8100;SDS011;4093;53.470;9.832;2024-01-30T15:00:04;14.03;;;9.97;;
8100;SDS011;4093;53.470;9.832;2024-01-30T15:02:33;14.13;;;9.87;;